sensor_id;sensor_type;location;lat;lon;timestamp;pressure;altitude;pressure_sealevel;temperature;humidity
71151;BME280;59071;42.138;24.768;2023-03-25T00:01:46;99435.97;;;13.55;52.31
71151;BME280;59071;42.138;24.768;2023-03-25T00:04:12;99435.84;;;13.50;52.26
71151;BME280;59071;42.138;24.768;2023-03-25T00:06:37;99437.66;;;13.38;52.87
71151;BME280;59071;42.138;24.768;2023-03-25T00:09:03;99443.59;;;13.40;52.75
71151;BME280;59071;42.138;24.768;2023-03-25T00:11:28;99440.31;;;12.77;54.01
71151;BME280;59071;42.138;24.768;2023-03-25T00:13:53;99436.38;;;12.49;55.35
71151;BME280;59071;42.138;24.768;2023-03-25T00:16:19;99434.44;;;12.38;55.40
71151;BME280;59071;42.138;24.768;2023-03-25T00:18:44;99430.94;;;12.75;54.68
71151;BME280;59071;42.138;24.768;2023-03-25T00:21:12;99431.72;;;12.75;54.33
71151;BME280;59071;42.138;24.768;2023-03-25T00:23:38;99432.50;;;12.94;53.99
71151;BME280;59071;42.138;24.768;2023-03-25T00:26:04;99426.25;;;13.00;53.22
71151;BME280;59071;42.138;24.768;2023-03-25T00:28:30;99421.81;;;12.94;54.08
71151;BME280;59071;42.138;24.768;2023-03-25T00:31:00;99427.69;;;13.03;53.41
71151;BME280;59071;42.138;24.768;2023-03-25T00:33:26;99429.72;;;12.89;53.59
71151;BME280;59071;42.138;24.768;2023-03-25T00:35:51;99417.75;;;12.91;53.38
71151;BME280;59071;42.138;24.768;2023-03-25T00:38:18;99419.66;;;12.73;53.57
71151;BME280;59071;42.138;24.768;2023-03-25T00:40:44;99416.00;;;12.85;53.54
71151;BME280;59071;42.138;24.768;2023-03-25T00:43:10;99416.78;;;13.04;53.15
71151;BME280;59071;42.138;24.768;2023-03-25T00:45:36;99407.31;;;12.90;53.59
71151;BME280;59071;42.138;24.768;2023-03-25T00:48:01;99402.06;;;12.83;53.87
71151;BME280;59071;42.138;24.768;2023-03-25T00:50:26;99403.50;;;12.98;53.43
71151;BME280;59071;42.138;24.768;2023-03-25T00:52:52;99410.84;;;13.02;53.12
71151;BME280;59071;42.138;24.768;2023-03-25T00:55:20;99405.22;;;12.92;53.78
71151;BME280;59071;42.138;24.768;2023-03-25T00:57:46;99413.38;;;12.97;53.67
71151;BME280;59071;42.138;24.768;2023-03-25T01:00:14;99410.38;;;13.05;53.06
71151;BME280;59071;42.138;24.768;2023-03-25T01:02:40;99400.03;;;12.97;53.70
71151;BME280;59071;42.138;24.768;2023-03-25T01:05:06;99404.16;;;12.81;54.26
71151;BME280;59071;42.138;24.768;2023-03-25T01:07:31;99411.84;;;12.89;54.05
71151;BME280;59071;42.138;24.768;2023-03-25T01:09:57;99408.47;;;12.94;53.68
71151;BME280;59071;42.138;24.768;2023-03-25T01:12:23;99398.53;;;12.71;54.42
71151;BME280;59071;42.138;24.768;2023-03-25T01:14:48;99402.09;;;12.65;54.78
71151;BME280;59071;42.138;24.768;2023-03-25T01:17:14;99393.03;;;12.17;56.35
71151;BME280;59071;42.138;24.768;2023-03-25T01:19:39;99389.06;;;12.57;54.74
71151;BME280;59071;42.138;24.768;2023-03-25T01:22:04;99387.22;;;12.57;55.44
71151;BME280;59071;42.138;24.768;2023-03-25T01:24:30;99381.88;;;12.57;55.00
71151;BME280;59071;42.138;24.768;2023-03-25T01:26:55;99385.59;;;12.38;55.90
71151;BME280;59071;42.138;24.768;2023-03-25T01:29:21;99382.63;;;12.46;55.63
71151;BME280;59071;42.138;24.768;2023-03-25T01:31:46;99370.13;;;12.58;55.04
71151;BME280;59071;42.138;24.768;2023-03-25T01:34:12;99380.59;;;12.41;55.92
71151;BME280;59071;42.138;24.768;2023-03-25T01:36:38;99378.72;;;12.60;54.92
71151;BME280;59071;42.138;24.768;2023-03-25T01:39:06;99371.09;;;12.64;54.91
71151;BME280;59071;42.138;24.768;2023-03-25T01:41:32;99364.09;;;12.51;55.24
71151;BME280;59071;42.138;24.768;2023-03-25T01:44:02;99371.44;;;12.37;55.45
71151;BME280;59071;42.138;24.768;2023-03-25T01:46:27;99367.59;;;12.33;56.08
71151;BME280;59071;42.138;24.768;2023-03-25T01:48:52;99365.59;;;12.10;56.65
71151;BME280;59071;42.138;24.768;2023-03-25T01:51:23;99356.25;;;12.19;57.05
71151;BME280;59071;42.138;24.768;2023-03-25T01:53:50;99359.53;;;12.21;57.10
71151;BME280;59071;42.138;24.768;2023-03-25T01:56:17;99357.06;;;12.38;56.56
71151;BME280;59071;42.138;24.768;2023-03-25T01:58:44;99352.09;;;12.23;56.54
71151;BME280;59071;42.138;24.768;2023-03-25T02:01:09;99346.88;;;12.17;57.19
71151;BME280;59071;42.138;24.768;2023-03-25T02:03:37;99350.34;;;12.36;56.48
71151;BME280;59071;42.138;24.768;2023-03-25T02:06:05;99341.53;;;12.17;57.09
71151;BME280;59071;42.138;24.768;2023-03-25T02:08:33;99340.03;;;12.02;57.47
71151;BME280;59071;42.138;24.768;2023-03-25T02:11:02;99328.63;;;12.13;57.42
71151;BME280;59071;42.138;24.768;2023-03-25T02:13:28;99333.28;;;12.18;57.41
71151;BME280;59071;42.138;24.768;2023-03-25T02:16:06;99330.75;;;12.23;57.40
71151;BME280;59071;42.138;24.768;2023-03-25T02:18:54;99338.22;;;12.33;56.83
71151;BME280;59071;42.138;24.768;2023-03-25T02:21:34;99336.88;;;12.42;56.51
71151;BME280;59071;42.138;24.768;2023-03-25T02:39:41;99329.38;;;12.02;56.23
71151;BME280;59071;42.138;24.768;2023-03-25T02:47:23;99328.78;;;12.19;57.13
71151;BME280;59071;42.138;24.768;2023-03-25T02:49:56;99321.91;;;12.11;56.75
71151;BME280;59071;42.138;24.768;2023-03-25T02:52:32;99319.28;;;12.04;56.99
71151;BME280;59071;42.138;24.768;2023-03-25T02:55:02;99318.28;;;12.05;57.29
71151;BME280;59071;42.138;24.768;2023-03-25T02:57:30;99314.88;;;11.98;57.79
71151;BME280;59071;42.138;24.768;2023-03-25T02:59:56;99314.75;;;11.86;57.95
71151;BME280;59071;42.138;24.768;2023-03-25T03:02:24;99319.66;;;11.89;57.86
71151;BME280;59071;42.138;24.768;2023-03-25T03:04:51;99316.41;;;12.06;57.14
71151;BME280;59071;42.138;24.768;2023-03-25T03:07:22;99307.59;;;12.05;57.42
71151;BME280;59071;42.138;24.768;2023-03-25T03:09:53;99301.19;;;11.88;57.76
71151;BME280;59071;42.138;24.768;2023-03-25T03:17:23;99294.44;;;11.92;57.04
71151;BME280;59071;42.138;24.768;2023-03-25T03:19:52;99299.75;;;11.92;57.01
71151;BME280;59071;42.138;24.768;2023-03-25T03:24:54;99298.66;;;12.00;57.28
71151;BME280;59071;42.138;24.768;2023-03-25T03:27:28;99289.22;;;11.97;57.33
71151;BME280;59071;42.138;24.768;2023-03-25T03:30:12;99297.50;;;11.89;57.86
71151;BME280;59071;42.138;24.768;2023-03-25T03:32:41;99290.25;;;11.78;57.67
71151;BME280;59071;42.138;24.768;2023-03-25T03:35:29;99281.50;;;11.89;57.43
71151;BME280;59071;42.138;24.768;2023-03-25T03:37:59;99280.09;;;11.68;57.67
71151;BME280;59071;42.138;24.768;2023-03-25T03:40:26;99286.75;;;11.77;57.64
71151;BME280;59071;42.138;24.768;2023-03-25T03:43:02;99286.81;;;11.70;57.33
71151;BME280;59071;42.138;24.768;2023-03-25T03:45:51;99286.56;;;11.79;57.34
71151;BME280;59071;42.138;24.768;2023-03-25T03:48:20;99296.50;;;11.90;57.78
71151;BME280;59071;42.138;24.768;2023-03-25T03:50:59;99292.16;;;11.70;58.20
71151;BME280;59071;42.138;24.768;2023-03-25T03:53:31;99293.97;;;11.77;57.60
71151;BME280;59071;42.138;24.768;2023-03-25T03:56:00;99292.84;;;11.66;57.58
71151;BME280;59071;42.138;24.768;2023-03-25T03:58:30;99290.59;;;11.44;57.98
71151;BME280;59071;42.138;24.768;2023-03-25T04:03:44;99282.06;;;11.35;57.84
71151;BME280;59071;42.138;24.768;2023-03-25T04:08:52;99287.31;;;11.24;58.84
71151;BME280;59071;42.138;24.768;2023-03-25T04:11:23;99294.19;;;11.31;59.23
71151;BME280;59071;42.138;24.768;2023-03-25T04:13:51;99288.34;;;10.98;59.99
71151;BME280;59071;42.138;24.768;2023-03-25T04:16:18;99285.97;;;11.08;59.68
71151;BME280;59071;42.138;24.768;2023-03-25T04:18:44;99281.63;;;10.88;60.12
71151;BME280;59071;42.138;24.768;2023-03-25T04:21:11;99288.41;;;10.91;59.92
71151;BME280;59071;42.138;24.768;2023-03-25T04:23:39;99288.25;;;10.79;60.30
71151;BME280;59071;42.138;24.768;2023-03-25T04:26:05;99297.56;;;10.95;59.43
71151;BME280;59071;42.138;24.768;2023-03-25T04:28:30;99291.41;;;10.94;59.73
71151;BME280;59071;42.138;24.768;2023-03-25T04:30:56;99302.81;;;11.08;59.50
71151;BME280;59071;42.138;24.768;2023-03-25T04:33:24;99305.16;;;11.42;58.48
71151;BME280;59071;42.138;24.768;2023-03-25T04:35:49;99312.22;;;11.54;58.35
71151;BME280;59071;42.138;24.768;2023-03-25T04:38:18;99297.13;;;11.67;57.81
71151;BME280;59071;42.138;24.768;2023-03-25T04:40:43;99297.34;;;11.84;57.32
71151;BME280;59071;42.138;24.768;2023-03-25T04:43:11;99308.19;;;12.07;57.34
71151;BME280;59071;42.138;24.768;2023-03-25T04:45:37;99301.28;;;12.18;57.16
71151;BME280;59071;42.138;24.768;2023-03-25T04:48:02;99304.97;;;12.36;56.20
71151;BME280;59071;42.138;24.768;2023-03-25T04:50:30;99306.06;;;12.58;55.88
71151;BME280;59071;42.138;24.768;2023-03-25T04:52:56;99307.41;;;12.79;54.91
71151;BME280;59071;42.138;24.768;2023-03-25T04:55:22;99312.25;;;13.01;55.13
71151;BME280;59071;42.138;24.768;2023-03-25T04:57:50;99311.00;;;13.27;54.24
71151;BME280;59071;42.138;24.768;2023-03-25T05:00:17;99312.88;;;13.50;53.67
71151;BME280;59071;42.138;24.768;2023-03-25T05:02:44;99311.56;;;13.76;52.76
71151;BME280;59071;42.138;24.768;2023-03-25T05:05:10;99323.75;;;14.07;51.73
71151;BME280;59071;42.138;24.768;2023-03-25T05:07:42;99297.56;;;14.38;51.29
71151;BME280;59071;42.138;24.768;2023-03-25T05:10:09;99302.13;;;14.66;51.01
71151;BME280;59071;42.138;24.768;2023-03-25T05:12:35;99302.88;;;14.96;49.68
71151;BME280;59071;42.138;24.768;2023-03-25T05:15:00;99298.00;;;15.27;48.62
71151;BME280;59071;42.138;24.768;2023-03-25T05:17:25;99307.09;;;15.59;48.31
71151;BME280;59071;42.138;24.768;2023-03-25T05:19:53;99307.47;;;15.68;46.71
71151;BME280;59071;42.138;24.768;2023-03-25T05:22:21;99303.03;;;15.96;47.09
71151;BME280;59071;42.138;24.768;2023-03-25T05:24:46;99294.84;;;16.08;46.07
71151;BME280;59071;42.138;24.768;2023-03-25T05:27:11;99302.81;;;16.02;46.93
71151;BME280;59071;42.138;24.768;2023-03-25T05:29:37;99313.13;;;16.60;50.47
71151;BME280;59071;42.138;24.768;2023-03-25T05:32:03;99307.81;;;17.25;45.98
71151;BME280;59071;42.138;24.768;2023-03-25T05:34:30;99312.00;;;17.90;46.07
71151;BME280;59071;42.138;24.768;2023-03-25T05:36:55;99317.44;;;18.06;44.84
71151;BME280;59071;42.138;24.768;2023-03-25T05:39:21;99307.31;;;18.28;41.77
71151;BME280;59071;42.138;24.768;2023-03-25T05:41:46;99303.09;;;18.73;41.57
71151;BME280;59071;42.138;24.768;2023-03-25T05:44:12;99302.06;;;19.10;39.96
71151;BME280;59071;42.138;24.768;2023-03-25T05:46:39;99293.63;;;19.53;39.81
71151;BME280;59071;42.138;24.768;2023-03-25T05:49:04;99291.94;;;19.88;40.28
71151;BME280;59071;42.138;24.768;2023-03-25T05:51:31;99295.63;;;20.13;38.18
71151;BME280;59071;42.138;24.768;2023-03-25T05:53:57;99292.22;;;19.91;37.39
71151;BME280;59071;42.138;24.768;2023-03-25T05:56:23;99293.47;;;20.15;39.04
71151;BME280;59071;42.138;24.768;2023-03-25T05:58:49;99303.19;;;20.65;37.30
71151;BME280;59071;42.138;24.768;2023-03-25T06:01:16;99299.75;;;21.23;35.87
71151;BME280;59071;42.138;24.768;2023-03-25T06:03:42;99296.75;;;21.59;34.61
71151;BME280;59071;42.138;24.768;2023-03-25T06:06:08;99299.06;;;21.42;35.55
71151;BME280;59071;42.138;24.768;2023-03-25T06:08:46;99295.09;;;21.58;34.58
71151;BME280;59071;42.138;24.768;2023-03-25T06:11:14;99302.72;;;22.23;33.98
71151;BME280;59071;42.138;24.768;2023-03-25T06:13:40;99311.69;;;22.24;33.22
71151;BME280;59071;42.138;24.768;2023-03-25T06:16:06;99311.47;;;22.20;39.70
71151;BME280;59071;42.138;24.768;2023-03-25T06:18:33;99297.47;;;22.89;32.96
71151;BME280;59071;42.138;24.768;2023-03-25T06:20:58;99311.03;;;23.08;31.41
71151;BME280;59071;42.138;24.768;2023-03-25T06:23:24;99302.69;;;22.86;31.97
71151;BME280;59071;42.138;24.768;2023-03-25T06:25:50;99302.03;;;23.27;31.77
71151;BME280;59071;42.138;24.768;2023-03-25T06:28:16;99301.19;;;23.12;31.98
71151;BME280;59071;42.138;24.768;2023-03-25T06:30:45;99296.69;;;23.82;30.81
71151;BME280;59071;42.138;24.768;2023-03-25T06:33:11;99290.22;;;24.06;30.35
71151;BME280;59071;42.138;24.768;2023-03-25T06:35:38;99286.97;;;24.31;30.09
71151;BME280;59071;42.138;24.768;2023-03-25T06:38:03;99285.81;;;24.46;29.52
71151;BME280;59071;42.138;24.768;2023-03-25T06:40:28;99296.69;;;24.46;29.64
71151;BME280;59071;42.138;24.768;2023-03-25T06:42:54;99291.81;;;24.93;29.10
71151;BME280;59071;42.138;24.768;2023-03-25T06:45:19;99289.91;;;25.48;28.41
71151;BME280;59071;42.138;24.768;2023-03-25T06:47:44;99284.06;;;25.72;27.70
71151;BME280;59071;42.138;24.768;2023-03-25T06:50:09;99287.69;;;25.59;28.06
71151;BME280;59071;42.138;24.768;2023-03-25T06:52:35;99287.69;;;25.50;28.28
71151;BME280;59071;42.138;24.768;2023-03-25T06:55:01;99291.72;;;26.10;27.60
71151;BME280;59071;42.138;24.768;2023-03-25T06:57:26;99291.47;;;26.38;26.65
71151;BME280;59071;42.138;24.768;2023-03-25T06:59:51;99299.25;;;26.04;26.88
71151;BME280;59071;42.138;24.768;2023-03-25T07:02:17;99292.09;;;25.77;27.46
71151;BME280;59071;42.138;24.768;2023-03-25T07:04:42;99292.41;;;25.75;27.70
71151;BME280;59071;42.138;24.768;2023-03-25T07:07:07;99293.03;;;26.21;26.68
71151;BME280;59071;42.138;24.768;2023-03-25T07:09:33;99292.09;;;26.26;26.66
71151;BME280;59071;42.138;24.768;2023-03-25T07:12:02;99285.84;;;26.34;26.54
71151;BME280;59071;42.138;24.768;2023-03-25T07:14:27;99289.34;;;24.61;28.23
71151;BME280;59071;42.138;24.768;2023-03-25T07:16:52;99286.81;;;25.09;27.80
71151;BME280;59071;42.138;24.768;2023-03-25T07:19:18;99288.03;;;25.97;26.91
71151;BME280;59071;42.138;24.768;2023-03-25T07:21:43;99287.25;;;25.65;27.41
71151;BME280;59071;42.138;24.768;2023-03-25T07:24:08;99287.94;;;26.37;26.60
71151;BME280;59071;42.138;24.768;2023-03-25T07:26:33;99283.91;;;27.04;26.15
71151;BME280;59071;42.138;24.768;2023-03-25T07:28:59;99284.56;;;26.40;26.66
71151;BME280;59071;42.138;24.768;2023-03-25T07:31:24;99277.63;;;25.99;26.91
71151;BME280;59071;42.138;24.768;2023-03-25T07:33:49;99281.31;;;26.21;26.42
71151;BME280;59071;42.138;24.768;2023-03-25T07:36:15;99275.28;;;26.76;26.21
71151;BME280;59071;42.138;24.768;2023-03-25T07:38:41;99280.97;;;27.18;25.34
71151;BME280;59071;42.138;24.768;2023-03-25T07:41:07;99277.34;;;27.53;25.11
71151;BME280;59071;42.138;24.768;2023-03-25T07:43:33;99270.47;;;27.46;25.30
71151;BME280;59071;42.138;24.768;2023-03-25T07:45:58;99269.31;;;27.86;24.69
71151;BME280;59071;42.138;24.768;2023-03-25T07:48:23;99259.63;;;27.97;24.24
71151;BME280;59071;42.138;24.768;2023-03-25T07:50:49;99263.94;;;27.68;23.89
71151;BME280;59071;42.138;24.768;2023-03-25T07:53:15;99268.66;;;26.95;24.79
71151;BME280;59071;42.138;24.768;2023-03-25T07:55:40;99259.66;;;26.07;25.93
71151;BME280;59071;42.138;24.768;2023-03-25T07:58:05;99258.41;;;26.22;26.03
71151;BME280;59071;42.138;24.768;2023-03-25T08:00:31;99260.00;;;26.40;25.82
71151;BME280;59071;42.138;24.768;2023-03-25T08:02:56;99219.25;;;26.61;25.56
71151;BME280;59071;42.138;24.768;2023-03-25T08:05:21;99255.75;;;27.13;25.95
71151;BME280;59071;42.138;24.768;2023-03-25T08:07:48;99253.91;;;26.26;26.49
71151;BME280;59071;42.138;24.768;2023-03-25T08:10:14;99243.34;;;26.59;25.88
71151;BME280;59071;42.138;24.768;2023-03-25T08:12:40;99244.75;;;27.47;25.27
71151;BME280;59071;42.138;24.768;2023-03-25T08:15:05;99231.03;;;27.26;25.61
71151;BME280;59071;42.138;24.768;2023-03-25T08:17:31;99235.94;;;26.68;25.28
71151;BME280;59071;42.138;24.768;2023-03-25T08:19:56;99226.00;;;25.54;27.00
71151;BME280;59071;42.138;24.768;2023-03-25T08:22:22;99237.88;;;26.50;26.43
71151;BME280;59071;42.138;24.768;2023-03-25T08:24:48;99237.50;;;26.96;25.49
71151;BME280;59071;42.138;24.768;2023-03-25T08:27:13;99242.16;;;26.86;25.47
71151;BME280;59071;42.138;24.768;2023-03-25T08:29:38;99238.97;;;26.49;25.41
71151;BME280;59071;42.138;24.768;2023-03-25T08:32:04;99237.88;;;26.50;25.58
71151;BME280;59071;42.138;24.768;2023-03-25T08:34:29;99237.91;;;25.67;26.38
71151;BME280;59071;42.138;24.768;2023-03-25T08:36:58;99244.94;;;24.96;27.57
71151;BME280;59071;42.138;24.768;2023-03-25T08:39:23;99239.81;;;26.41;26.29
71151;BME280;59071;42.138;24.768;2023-03-25T08:41:54;99238.00;;;26.80;25.04
71151;BME280;59071;42.138;24.768;2023-03-25T08:44:19;99243.00;;;26.43;26.29
71151;BME280;59071;42.138;24.768;2023-03-25T08:46:45;99224.25;;;27.62;24.84
71151;BME280;59071;42.138;24.768;2023-03-25T08:49:10;99227.31;;;27.31;24.88
71151;BME280;59071;42.138;24.768;2023-03-25T08:51:35;99233.38;;;28.05;24.65
71151;BME280;59071;42.138;24.768;2023-03-25T08:54:01;99221.13;;;27.52;25.07
71151;BME280;59071;42.138;24.768;2023-03-25T08:56:27;99213.41;;;28.46;23.88
71151;BME280;59071;42.138;24.768;2023-03-25T08:58:52;99204.53;;;28.83;23.40
71151;BME280;59071;42.138;24.768;2023-03-25T09:01:17;99194.81;;;29.31;22.84
71151;BME280;59071;42.138;24.768;2023-03-25T09:03:42;99204.38;;;29.13;23.24
71151;BME280;59071;42.138;24.768;2023-03-25T09:06:08;99200.50;;;29.88;22.62
71151;BME280;59071;42.138;24.768;2023-03-25T09:08:33;99193.41;;;30.27;22.29
71151;BME280;59071;42.138;24.768;2023-03-25T09:11:00;99176.34;;;28.70;23.79
71151;BME280;59071;42.138;24.768;2023-03-25T09:13:26;99173.91;;;28.56;23.85
71151;BME280;59071;42.138;24.768;2023-03-25T09:15:51;99170.06;;;28.82;23.24
71151;BME280;59071;42.138;24.768;2023-03-25T09:18:16;99167.31;;;28.70;23.38
71151;BME280;59071;42.138;24.768;2023-03-25T09:20:42;99158.78;;;28.71;23.94
71151;BME280;59071;42.138;24.768;2023-03-25T09:23:07;99157.28;;;28.74;23.67
71151;BME280;59071;42.138;24.768;2023-03-25T09:25:33;99149.88;;;28.62;23.62
71151;BME280;59071;42.138;24.768;2023-03-25T09:27:59;99145.94;;;28.96;23.28
71151;BME280;59071;42.138;24.768;2023-03-25T09:30:24;99144.69;;;29.06;22.70
71151;BME280;59071;42.138;24.768;2023-03-25T09:32:50;99139.03;;;28.65;23.39
71151;BME280;59071;42.138;24.768;2023-03-25T09:35:15;99143.63;;;28.86;23.25
71151;BME280;59071;42.138;24.768;2023-03-25T09:37:40;99141.69;;;28.87;23.05
71151;BME280;59071;42.138;24.768;2023-03-25T09:40:07;99136.88;;;28.38;24.32
71151;BME280;59071;42.138;24.768;2023-03-25T09:42:38;99139.72;;;28.41;24.41
71151;BME280;59071;42.138;24.768;2023-03-25T09:47:51;99135.09;;;27.28;30.95
71151;BME280;59071;42.138;24.768;2023-03-25T09:50:19;99133.84;;;26.78;28.87
71151;BME280;59071;42.138;24.768;2023-03-25T09:55:10;99121.53;;;28.12;25.27
71151;BME280;59071;42.138;24.768;2023-03-25T09:57:44;99117.53;;;27.38;26.09
71151;BME280;59071;42.138;24.768;2023-03-25T10:00:14;99114.22;;;27.53;26.55
71151;BME280;59071;42.138;24.768;2023-03-25T10:05:42;99095.84;;;26.64;27.54
71151;BME280;59071;42.138;24.768;2023-03-25T10:26:47;99044.16;;;25.86;28.02
71151;BME280;59071;42.138;24.768;2023-03-25T10:29:20;99034.47;;;26.79;27.43
71151;BME280;59071;42.138;24.768;2023-03-25T10:31:50;99031.03;;;27.21;26.67
71151;BME280;59071;42.138;24.768;2023-03-25T10:34:17;99036.13;;;27.52;26.64
71151;BME280;59071;42.138;24.768;2023-03-25T10:36:44;99021.31;;;27.95;25.98
71151;BME280;59071;42.138;24.768;2023-03-25T10:39:16;99014.19;;;27.61;26.86
71151;BME280;59071;42.138;24.768;2023-03-25T10:41:43;99021.97;;;28.25;26.66
71151;BME280;59071;42.138;24.768;2023-03-25T10:44:11;99018.75;;;27.06;27.89
71151;BME280;59071;42.138;24.768;2023-03-25T10:46:40;99008.78;;;26.80;28.00
71151;BME280;59071;42.138;24.768;2023-03-25T10:49:15;99002.69;;;27.34;27.45
71151;BME280;59071;42.138;24.768;2023-03-25T10:51:41;99000.63;;;27.31;27.27
71151;BME280;59071;42.138;24.768;2023-03-25T10:54:09;98998.19;;;26.79;27.75
71151;BME280;59071;42.138;24.768;2023-03-25T10:56:35;98986.75;;;26.00;28.82
71151;BME280;59071;42.138;24.768;2023-03-25T11:01:47;98989.69;;;27.31;27.41
71151;BME280;59071;42.138;24.768;2023-03-25T11:04:14;98980.25;;;27.62;27.26
71151;BME280;59071;42.138;24.768;2023-03-25T11:06:43;98977.34;;;27.46;26.85
71151;BME280;59071;42.138;24.768;2023-03-25T11:09:14;98977.81;;;27.81;26.65
71151;BME280;59071;42.138;24.768;2023-03-25T11:11:42;98974.03;;;26.60;28.05
71151;BME280;59071;42.138;24.768;2023-03-25T11:14:07;98967.63;;;27.15;26.98
71151;BME280;59071;42.138;24.768;2023-03-25T11:16:47;98965.53;;;28.08;26.16
71151;BME280;59071;42.138;24.768;2023-03-25T11:19:23;98967.88;;;27.43;27.25
71151;BME280;59071;42.138;24.768;2023-03-25T11:21:57;98948.97;;;27.17;27.52
71151;BME280;59071;42.138;24.768;2023-03-25T11:24:26;98955.91;;;28.02;26.30
71151;BME280;59071;42.138;24.768;2023-03-25T11:26:53;98944.81;;;28.20;26.03
71151;BME280;59071;42.138;24.768;2023-03-25T11:29:19;98937.50;;;27.03;27.52
71151;BME280;59071;42.138;24.768;2023-03-25T11:31:54;98937.59;;;28.03;26.40
71151;BME280;59071;42.138;24.768;2023-03-25T11:34:20;98932.69;;;28.82;24.82
71151;BME280;59071;42.138;24.768;2023-03-25T11:36:59;98924.28;;;29.28;23.99
71151;BME280;59071;42.138;24.768;2023-03-25T11:41:54;98922.47;;;28.55;24.95
71151;BME280;59071;42.138;24.768;2023-03-25T11:44:29;98919.16;;;28.74;25.03
71151;BME280;59071;42.138;24.768;2023-03-25T11:46:59;98903.50;;;29.55;24.44
71151;BME280;59071;42.138;24.768;2023-03-25T11:49:25;98898.16;;;29.91;23.52
71151;BME280;59071;42.138;24.768;2023-03-25T11:51:58;98896.22;;;29.75;24.31
71151;BME280;59071;42.138;24.768;2023-03-25T11:54:25;98884.03;;;30.05;24.20
71151;BME280;59071;42.138;24.768;2023-03-25T11:56:51;98877.22;;;29.82;23.85
71151;BME280;59071;42.138;24.768;2023-03-25T11:59:21;98878.19;;;29.46;24.25
71151;BME280;59071;42.138;24.768;2023-03-25T12:01:48;98879.03;;;29.06;24.93
71151;BME280;59071;42.138;24.768;2023-03-25T12:04:16;98865.81;;;29.52;23.96
71151;BME280;59071;42.138;24.768;2023-03-25T12:09:27;98866.75;;;29.72;24.01
71151;BME280;59071;42.138;24.768;2023-03-25T12:11:56;98861.00;;;28.64;24.52
71151;BME280;59071;42.138;24.768;2023-03-25T12:17:45;98857.22;;;27.83;25.52
71151;BME280;59071;42.138;24.768;2023-03-25T12:33:04;98804.81;;;28.55;24.37
71151;BME280;59071;42.138;24.768;2023-03-25T12:35:47;98835.25;;;28.94;24.49
71151;BME280;59071;42.138;24.768;2023-03-25T12:46:16;98818.94;;;28.57;25.08
71151;BME280;59071;42.138;24.768;2023-03-25T12:51:42;98808.53;;;27.97;26.45
71151;BME280;59071;42.138;24.768;2023-03-25T12:56:55;98794.16;;;28.00;25.74
71151;BME280;59071;42.138;24.768;2023-03-25T12:59:34;98793.78;;;27.19;26.88
71151;BME280;59071;42.138;24.768;2023-03-25T13:02:19;98781.34;;;27.30;26.36
71151;BME280;59071;42.138;24.768;2023-03-25T13:07:17;98772.16;;;26.60;27.38
71151;BME280;59071;42.138;24.768;2023-03-25T13:09:49;98782.19;;;26.89;27.19
71151;BME280;59071;42.138;24.768;2023-03-25T13:15:03;98767.38;;;26.36;28.42
71151;BME280;59071;42.138;24.768;2023-03-25T13:17:35;98775.38;;;26.11;28.28
71151;BME280;59071;42.138;24.768;2023-03-25T13:20:02;98764.78;;;26.39;27.88
71151;BME280;59071;42.138;24.768;2023-03-25T13:22:32;98768.19;;;26.06;28.33
71151;BME280;59071;42.138;24.768;2023-03-25T13:25:00;98758.84;;;25.39;28.97
71151;BME280;59071;42.138;24.768;2023-03-25T13:27:29;98756.13;;;25.78;28.77
71151;BME280;59071;42.138;24.768;2023-03-25T13:29:56;98755.84;;;26.09;28.42
71151;BME280;59071;42.138;24.768;2023-03-25T13:32:24;98749.84;;;25.86;28.44
71151;BME280;59071;42.138;24.768;2023-03-25T13:34:52;98751.00;;;26.14;28.20
71151;BME280;59071;42.138;24.768;2023-03-25T13:37:35;98748.06;;;26.20;28.20
71151;BME280;59071;42.138;24.768;2023-03-25T13:42:58;98727.06;;;26.41;28.23
71151;BME280;59071;42.138;24.768;2023-03-25T13:45:27;98735.84;;;26.26;28.32
71151;BME280;59071;42.138;24.768;2023-03-25T13:52:47;98733.00;;;25.63;28.30
71151;BME280;59071;42.138;24.768;2023-03-25T13:55:15;98733.88;;;25.46;28.23
71151;BME280;59071;42.138;24.768;2023-03-25T14:00:27;98725.34;;;24.83;29.72
71151;BME280;59071;42.138;24.768;2023-03-25T14:13:01;98722.63;;;24.83;29.87
71151;BME280;59071;42.138;24.768;2023-03-25T14:17:56;98717.63;;;25.02;29.38
71151;BME280;59071;42.138;24.768;2023-03-25T14:20:23;98708.56;;;24.63;29.98
71151;BME280;59071;42.138;24.768;2023-03-25T14:22:57;98707.59;;;24.76;29.53
71151;BME280;59071;42.138;24.768;2023-03-25T14:25:33;98708.31;;;25.12;29.03
71151;BME280;59071;42.138;24.768;2023-03-25T14:28:01;98694.81;;;25.33;28.90
71151;BME280;59071;42.138;24.768;2023-03-25T14:30:27;98705.81;;;24.81;29.58
71151;BME280;59071;42.138;24.768;2023-03-25T14:32:53;98691.72;;;25.43;28.72
71151;BME280;59071;42.138;24.768;2023-03-25T14:43:26;98677.88;;;25.18;28.38
71151;BME280;59071;42.138;24.768;2023-03-25T14:46:01;98677.34;;;25.34;28.12
71151;BME280;59071;42.138;24.768;2023-03-25T14:48:29;98676.09;;;25.31;28.15
71151;BME280;59071;42.138;24.768;2023-03-25T14:53:39;98674.50;;;24.57;29.30
71151;BME280;59071;42.138;24.768;2023-03-25T14:56:06;98676.41;;;24.74;29.24
71151;BME280;59071;42.138;24.768;2023-03-25T14:58:32;98678.81;;;24.75;29.47
71151;BME280;59071;42.138;24.768;2023-03-25T15:01:02;98677.44;;;25.08;29.15
71151;BME280;59071;42.138;24.768;2023-03-25T15:03:35;98670.63;;;25.40;28.59
71151;BME280;59071;42.138;24.768;2023-03-25T15:06:01;98676.16;;;25.82;28.39
71151;BME280;59071;42.138;24.768;2023-03-25T15:08:40;98678.88;;;25.82;28.32
71151;BME280;59071;42.138;24.768;2023-03-25T15:11:11;98679.22;;;25.72;28.55